Time;durP1;ratioP1;P1;durP2;ratioP2;P2;SDS_P1;SDS_P2;PMS_P1;PMS_P2;Temp;Humidity;BMP_temperature;BMP_pressure;BME280_temperature;BME280_humidity;BME280_pressure;Samples;Min_cycle;Max_cycle;Signal;HPM_P1;HPM_P2
2024/01/31 00:01:55;;;;;;;9.83;6.47;;;8.20;99.90;;;;;;5075381;28;20547;-66
2024/01/31 00:04:22;;;;;;;11.30;7.80;;;8.30;99.90;;;;;;5075123;28;20996;-67
2024/01/31 00:06:50;;;;;;;13.07;7.23;;;8.30;99.90;;;;;;5074838;28;20479;-65
2024/01/31 00:09:17;;;;;;;16.27;7.83;;;8.20;99.90;;;;;;5075352;28;20442;-66
2024/01/31 00:11:46;;;;;;;15.10;6.67;;;8.30;99.90;;;;;;5074864;28;20562;-66
2024/01/31 00:14:15;;;;;;;10.60;7.40;;;8.30;99.90;;;;;;5074498;28;20458;-66
2024/01/31 00:16:44;;;;;;;9.77;6.93;;;8.30;99.90;;;;;;5075819;28;20470;-65
2024/01/31 00:19:11;;;;;;;10.67;7.40;;;8.30;99.90;;;;;;5074769;28;20459;-65
2024/01/31 00:21:38;;;;;;;17.53;8.87;;;8.40;99.90;;;;;;5075649;28;20496;-65
2024/01/31 00:24:06;;;;;;;21.77;11.20;;;8.40;99.90;;;;;;5075778;28;20477;-66
2024/01/31 00:26:33;;;;;;;19.97;8.93;;;8.50;99.90;;;;;;5075920;28;20496;-65
2024/01/31 00:29:02;;;;;;;7.63;6.47;;;8.50;99.90;;;;;;5075600;28;20637;-65
2024/01/31 00:31:29;;;;;;;9.40;6.60;;;8.60;99.90;;;;;;5075110;28;20470;-63
2024/01/31 00:33:56;;;;;;;7.57;6.10;;;8.50;99.90;;;;;;5074489;28;20843;-65
2024/01/31 00:36:23;;;;;;;13.33;6.50;;;8.60;99.90;;;;;;5074340;28;20497;-65
2024/01/31 00:38:50;;;;;;;14.37;8.20;;;8.60;99.90;;;;;;5074102;28;20529;-66
2024/01/31 00:41:17;;;;;;;9.17;5.50;;;8.70;99.90;;;;;;5074496;28;20428;-65
2024/01/31 00:43:44;;;;;;;15.67;9.57;;;8.70;99.90;;;;;;5074173;28;20547;-65
2024/01/31 00:46:12;;;;;;;10.80;8.37;;;8.80;99.90;;;;;;5074129;28;20526;-64
2024/01/31 00:48:40;;;;;;;19.87;10.23;;;8.80;99.90;;;;;;5074244;28;20487;-65
2024/01/31 00:51:11;;;;;;;15.80;8.60;;;8.80;99.90;;;;;;5073742;28;20524;-65
2024/01/31 00:53:38;;;;;;;10.77;6.63;;;8.90;99.90;;;;;;5074055;28;20438;-66
2024/01/31 00:56:05;;;;;;;9.83;5.80;;;9.00;99.90;;;;;;5073960;28;20900;-64
2024/01/31 00:58:34;;;;;;;9.53;6.00;;;9.00;99.90;;;;;;5072782;28;20546;-65
2024/01/31 01:01:01;;;;;;;9.03;5.33;;;9.00;99.90;;;;;;5073653;28;20434;-65
2024/01/31 01:03:31;;;;;;;11.67;6.10;;;8.90;99.90;;;;;;5074140;28;20879;-65
2024/01/31 01:05:59;;;;;;;8.90;6.70;;;8.90;99.90;;;;;;5073788;28;20528;-65
2024/01/31 01:08:26;;;;;;;9.70;7.23;;;9.00;99.90;;;;;;5073796;28;20458;-65
2024/01/31 01:10:55;;;;;;;10.83;6.50;;;9.00;99.90;;;;;;5074209;28;20462;-66
2024/01/31 01:13:22;;;;;;;13.83;6.30;;;9.00;99.90;;;;;;5074521;28;20465;-65
2024/01/31 01:15:49;;;;;;;13.17;5.33;;;9.10;99.90;;;;;;5073926;28;20502;-64
2024/01/31 01:18:29;;;;;;;6.83;4.83;;;9.10;99.90;;;;;;5072869;28;20893;-65
2024/01/31 01:20:57;;;;;;;8.43;4.50;;;9.10;99.90;;;;;;5063554;28;20558;-65
2024/01/31 01:23:24;;;;;;;8.43;5.27;;;9.10;99.90;;;;;;5078295;28;20496;-66
2024/01/31 01:25:54;;;;;;;5.77;5.20;;;9.10;99.90;;;;;;5080037;28;20427;-64
2024/01/31 01:28:21;;;;;;;11.77;5.13;;;9.10;99.90;;;;;;5083215;28;20438;-65
2024/01/31 01:30:48;;;;;;;6.43;4.60;;;9.10;99.90;;;;;;5085920;28;20507;-65
2024/01/31 01:33:15;;;;;;;7.57;5.00;;;9.10;99.90;;;;;;5087182;28;20481;-64
2024/01/31 01:35:43;;;;;;;7.90;4.77;;;9.20;99.90;;;;;;5085318;28;20470;-64
2024/01/31 01:38:11;;;;;;;7.80;4.93;;;9.20;99.90;;;;;;5076012;28;20501;-65
2024/01/31 01:40:44;;;;;;;8.63;4.70;;;9.20;99.90;;;;;;5073186;28;20500;-64
2024/01/31 01:43:16;;;;;;;7.00;5.00;;;9.20;99.90;;;;;;5072762;28;20470;-65
2024/01/31 01:45:48;;;;;;;7.40;4.13;;;9.20;99.90;;;;;;5072895;28;20457;-65
2024/01/31 01:48:16;;;;;;;7.17;5.00;;;9.20;99.90;;;;;;5073272;28;20455;-65
2024/01/31 01:50:46;;;;;;;8.43;3.43;;;9.20;99.90;;;;;;5074315;28;20874;-65
2024/01/31 01:53:13;;;;;;;4.77;4.27;;;9.20;99.90;;;;;;5074288;28;21048;-65
2024/01/31 01:55:42;;;;;;;7.00;3.93;;;9.20;99.90;;;;;;5072878;28;20507;-65
2024/01/31 01:58:09;;;;;;;5.10;3.07;;;9.20;99.90;;;;;;5072854;28;20545;-65
2024/01/31 02:00:37;;;;;;;3.43;2.83;;;9.30;99.90;;;;;;5073690;28;20456;-65
2024/01/31 02:03:06;;;;;;;3.67;3.30;;;9.30;99.90;;;;;;5073894;28;21051;-65
2024/01/31 02:05:33;;;;;;;4.43;2.97;;;9.30;99.90;;;;;;5075052;28;20995;-65
2024/01/31 02:08:01;;;;;;;2.80;2.17;;;9.30;99.90;;;;;;5075317;28;20480;-64
2024/01/31 02:10:28;;;;;;;5.00;2.47;;;9.30;99.90;;;;;;5076394;28;20462;-65
2024/01/31 02:12:55;;;;;;;2.33;2.10;;;9.30;99.90;;;;;;5072378;28;22644;-65
2024/01/31 02:15:24;;;;;;;3.67;2.30;;;9.30;99.90;;;;;;5072633;28;20466;-65
2024/01/31 02:17:50;;;;;;;2.47;2.10;;;9.20;99.90;;;;;;5072376;28;20550;-67
2024/01/31 02:20:18;;;;;;;3.40;2.50;;;9.20;99.90;;;;;;5071836;28;20438;-65
2024/01/31 02:22:47;;;;;;;3.70;2.90;;;9.20;99.90;;;;;;5072688;28;20530;-65
2024/01/31 02:25:15;;;;;;;4.50;3.00;;;9.10;99.90;;;;;;5072133;28;20425;-65
2024/01/31 02:27:42;;;;;;;3.87;2.67;;;9.10;99.90;;;;;;5072172;28;20839;-66
2024/01/31 02:30:10;;;;;;;4.00;2.20;;;9.10;99.90;;;;;;5072541;28;20896;-65
2024/01/31 02:32:38;;;;;;;4.17;2.40;;;9.10;99.90;;;;;;5071930;28;20520;-67
2024/01/31 02:35:05;;;;;;;5.60;1.80;;;9.00;99.90;;;;;;5072414;28;20841;-65
2024/01/31 02:37:33;;;;;;;2.73;2.20;;;9.00;99.90;;;;;;5072215;28;20472;-66
2024/01/31 02:40:02;;;;;;;5.10;2.43;;;9.00;99.90;;;;;;5072309;28;20891;-66
2024/01/31 02:42:30;;;;;;;3.80;2.47;;;8.90;99.90;;;;;;5071997;28;20543;-65
2024/01/31 02:44:58;;;;;;;4.03;2.80;;;9.00;99.90;;;;;;5071901;28;20466;-63
2024/01/31 02:47:25;;;;;;;2.97;2.50;;;9.00;99.90;;;;;;5071536;28;21000;-65
2024/01/31 02:49:53;;;;;;;3.23;2.23;;;9.10;99.90;;;;;;5072361;28;20457;-65
2024/01/31 02:52:21;;;;;;;2.93;2.53;;;9.00;99.90;;;;;;5059488;28;20958;-65
2024/01/31 02:54:51;;;;;;;10.10;2.03;;;9.10;99.90;;;;;;5069542;28;20863;-65
2024/01/31 02:57:19;;;;;;;4.03;2.60;;;9.00;99.90;;;;;;5071925;28;20531;-65
2024/01/31 02:59:47;;;;;;;2.27;1.53;;;9.00;99.90;;;;;;5071290;28;20469;-65
2024/01/31 03:02:15;;;;;;;2.47;1.80;;;9.00;99.90;;;;;;5072157;28;20492;-65
2024/01/31 03:04:42;;;;;;;2.97;1.83;;;8.90;99.90;;;;;;5071772;28;20430;-65
2024/01/31 03:07:10;;;;;;;2.60;2.03;;;8.90;99.90;;;;;;5071886;28;20473;-66
2024/01/31 03:09:37;;;;;;;2.30;1.67;;;8.90;99.90;;;;;;5071838;28;20989;-65
2024/01/31 03:12:04;;;;;;;2.37;1.40;;;8.80;99.90;;;;;;5071512;28;20458;-66
2024/01/31 03:14:33;;;;;;;2.53;2.27;;;8.80;99.90;;;;;;5072530;28;20460;-62
2024/01/31 03:17:00;;;;;;;2.97;1.60;;;8.80;99.90;;;;;;5071993;28;20505;-65
2024/01/31 03:19:32;;;;;;;3.03;1.57;;;8.80;99.90;;;;;;5071907;28;20461;-65
2024/01/31 03:21:59;;;;;;;1.33;1.23;;;8.80;99.90;;;;;;5075138;28;20460;-66
2024/01/31 03:24:28;;;;;;;3.40;1.40;;;8.70;99.90;;;;;;5075939;28;20458;-65
2024/01/31 03:26:55;;;;;;;2.50;1.40;;;8.70;99.90;;;;;;5075650;28;20513;-64
2024/01/31 03:29:23;;;;;;;2.30;1.50;;;8.70;99.90;;;;;;5076714;28;20426;-64
2024/01/31 03:31:54;;;;;;;5.67;1.50;;;8.70;99.90;;;;;;5076694;28;21090;-65
2024/01/31 03:34:21;;;;;;;1.20;0.90;;;8.60;99.90;;;;;;5076984;28;20430;-65
2024/01/31 03:36:48;;;;;;;1.20;0.80;;;8.60;99.90;;;;;;5076707;28;20504;-65
2024/01/31 03:39:15;;;;;;;1.57;1.00;;;8.60;99.90;;;;;;5076492;28;20506;-65
2024/01/31 03:41:44;;;;;;;1.00;0.70;;;8.50;99.90;;;;;;5076968;28;20496;-64
2024/01/31 03:44:13;;;;;;;1.10;0.80;;;8.40;99.90;;;;;;5076847;28;20517;-66
2024/01/31 03:46:40;;;;;;;1.40;0.70;;;8.40;99.90;;;;;;5075442;28;20431;-66
2024/01/31 03:49:08;;;;;;;1.77;0.80;;;8.40;99.90;;;;;;5075793;28;20469;-65
2024/01/31 03:51:35;;;;;;;1.37;0.73;;;8.20;99.90;;;;;;5075621;28;20601;-65
2024/01/31 03:54:02;;;;;;;1.40;0.70;;;8.20;99.90;;;;;;5075373;28;20465;-65
2024/01/31 03:56:29;;;;;;;1.30;0.90;;;8.10;99.90;;;;;;5075657;28;20523;-65
2024/01/31 03:58:56;;;;;;;1.50;0.80;;;8.10;99.90;;;;;;5076914;28;20481;-65
2024/01/31 04:01:23;;;;;;;6.37;2.37;;;8.10;99.90;;;;;;5076150;28;20461;-65
2024/01/31 04:03:52;;;;;;;1.33;1.00;;;8.10;99.90;;;;;;5076119;28;20467;-64
2024/01/31 04:06:21;;;;;;;1.40;0.70;;;8.20;99.90;;;;;;5076417;28;20495;-64
2024/01/31 04:08:48;;;;;;;1.83;1.10;;;8.10;99.90;;;;;;5075805;28;20426;-65
2024/01/31 04:11:15;;;;;;;1.83;1.00;;;8.10;99.90;;;;;;5075447;28;20574;-65
2024/01/31 04:13:44;;;;;;;4.17;1.50;;;8.10;99.90;;;;;;5075739;28;20510;-65
2024/01/31 04:16:19;;;;;;;2.07;0.90;;;8.10;99.90;;;;;;5074662;28;20434;-64
2024/01/31 04:18:46;;;;;;;1.77;1.10;;;8.20;99.90;;;;;;5075468;28;20519;-64
2024/01/31 04:21:24;;;;;;;1.67;1.13;;;8.10;99.90;;;;;;5075077;28;20480;-65
2024/01/31 04:23:51;;;;;;;1.00;0.73;;;8.10;99.90;;;;;;5075319;28;20946;-66
2024/01/31 04:26:18;;;;;;;1.40;1.00;;;8.10;99.90;;;;;;5074842;28;20992;-66
2024/01/31 04:28:49;;;;;;;4.27;1.13;;;8.10;99.90;;;;;;5075629;28;20557;-65
2024/01/31 04:31:17;;;;;;;1.67;1.00;;;8.00;99.90;;;;;;5067992;28;20497;-65
2024/01/31 04:33:44;;;;;;;1.67;1.00;;;8.00;99.90;;;;;;5073209;28;20492;-66
2024/01/31 04:36:11;;;;;;;1.30;0.90;;;8.00;99.90;;;;;;5073750;28;20487;-66
2024/01/31 04:38:46;;;;;;;2.20;1.77;;;8.00;99.90;;;;;;5070657;28;20910;-66
2024/01/31 04:41:13;;;;;;;1.63;1.20;;;8.00;99.90;;;;;;5035799;28;20437;-65
2024/01/31 04:43:43;;;;;;;1.50;1.00;;;7.90;99.90;;;;;;5063185;28;20977;-65
2024/01/31 04:46:13;;;;;;;1.60;0.90;;;7.80;99.90;;;;;;5073192;28;20873;-65
2024/01/31 04:48:41;;;;;;;1.40;1.00;;;7.90;99.90;;;;;;5068665;28;20458;-67
2024/01/31 04:51:11;;;;;;;1.27;0.90;;;7.90;99.90;;;;;;5074146;28;20484;-65
2024/01/31 04:53:37;;;;;;;1.20;0.90;;;7.90;99.90;;;;;;5074094;28;20434;-64
2024/01/31 04:56:09;;;;;;;1.20;1.00;;;7.90;99.90;;;;;;5074253;28;20504;-64
2024/01/31 04:58:36;;;;;;;1.20;0.93;;;7.90;99.90;;;;;;5073535;28;20473;-66
2024/01/31 05:01:05;;;;;;;1.20;0.90;;;7.90;99.90;;;;;;5073684;28;20917;-64
2024/01/31 05:03:34;;;;;;;0.90;0.60;;;7.90;99.90;;;;;;5074722;28;20988;-67
2024/01/31 05:06:01;;;;;;;2.60;1.00;;;7.80;99.90;;;;;;5074028;28;21009;-65
2024/01/31 05:08:29;;;;;;;1.00;0.90;;;7.80;99.90;;;;;;5074593;28;20438;-66
2024/01/31 05:10:58;;;;;;;1.10;0.90;;;7.70;99.90;;;;;;5073886;28;20469;-65
2024/01/31 05:13:27;;;;;;;1.10;0.80;;;7.80;99.90;;;;;;5073670;28;20505;-65
2024/01/31 05:15:54;;;;;;;1.10;0.90;;;7.60;99.90;;;;;;5074331;28;20563;-66
2024/01/31 05:18:21;;;;;;;1.00;0.67;;;7.60;99.90;;;;;;5073216;28;20497;-66
2024/01/31 05:20:48;;;;;;;1.40;0.83;;;7.50;99.90;;;;;;5076376;28;20865;-66
2024/01/31 05:23:22;;;;;;;0.93;0.60;;;7.50;99.90;;;;;;5074850;28;20485;-66
2024/01/31 05:25:49;;;;;;;1.00;0.80;;;7.50;99.90;;;;;;5085073;28;20483;-66
2024/01/31 05:28:16;;;;;;;1.70;0.90;;;7.50;99.90;;;;;;5081474;28;20487;-66
2024/01/31 05:30:46;;;;;;;1.03;0.80;;;7.40;99.90;;;;;;5085745;28;20471;-66
2024/01/31 05:33:13;;;;;;;1.00;0.70;;;7.40;99.90;;;;;;5086681;28;20871;-66
2024/01/31 05:35:41;;;;;;;1.03;0.77;;;7.40;99.90;;;;;;5088194;28;20499;-65
2024/01/31 05:38:08;;;;;;;1.50;1.00;;;7.40;99.90;;;;;;5088774;28;20465;-65
2024/01/31 05:40:38;;;;;;;4.63;0.80;;;7.40;99.90;;;;;;5077585;28;20430;-66
2024/01/31 05:43:05;;;;;;;1.07;0.83;;;7.40;99.90;;;;;;5085926;28;20464;-66
2024/01/31 05:45:35;;;;;;;1.60;0.90;;;7.40;99.90;;;;;;5088367;28;20491;-65
2024/01/31 05:48:03;;;;;;;1.90;1.00;;;7.30;99.90;;;;;;5097234;28;20531;-65
2024/01/31 05:50:30;;;;;;;1.87;0.97;;;7.20;99.90;;;;;;5104251;28;20428;-65
2024/01/31 05:52:57;;;;;;;1.00;0.70;;;7.10;99.90;;;;;;5103771;28;20503;-66
2024/01/31 05:55:24;;;;;;;1.07;0.73;;;7.10;99.90;;;;;;5105344;28;20489;-66
2024/01/31 05:57:53;;;;;;;1.23;0.80;;;7.20;99.90;;;;;;5107289;28;20484;-66
2024/01/31 06:00:21;;;;;;;1.20;0.73;;;7.20;99.90;;;;;;5096629;28;20463;-66
2024/01/31 06:02:50;;;;;;;3.40;0.83;;;7.10;99.90;;;;;;5094430;28;21007;-66
2024/01/31 06:05:18;;;;;;;1.67;1.27;;;7.20;99.90;;;;;;5093797;28;20482;-66
2024/01/31 06:07:48;;;;;;;1.10;0.67;;;7.10;99.90;;;;;;5094225;28;20461;-65
2024/01/31 06:10:15;;;;;;;3.63;0.90;;;7.10;99.90;;;;;;5093885;28;20487;-64
2024/01/31 06:12:43;;;;;;;1.57;1.30;;;7.10;99.90;;;;;;5093838;28;20890;-66
2024/01/31 06:15:11;;;;;;;1.17;0.80;;;7.10;99.90;;;;;;5094189;28;20910;-65
2024/01/31 06:17:38;;;;;;;1.03;0.67;;;7.10;99.90;;;;;;5093498;28;20503;-65
2024/01/31 06:20:08;;;;;;;1.87;1.17;;;7.10;99.90;;;;;;5072818;28;20548;-65
2024/01/31 06:22:36;;;;;;;1.10;0.80;;;7.10;99.90;;;;;;5054014;28;20476;-65
2024/01/31 06:25:04;;;;;;;1.30;0.67;;;7.10;99.90;;;;;;5053407;28;20429;-66
2024/01/31 06:27:31;;;;;;;2.23;0.73;;;7.10;99.90;;;;;;5053394;28;20422;-65
2024/01/31 06:30:21;;;;;;;1.10;0.70;;;7.00;99.90;;;;;;5053180;28;20436;-66
2024/01/31 06:32:48;;;;;;;2.50;1.37;;;7.00;99.90;;;;;;5053224;28;20811;-66
2024/01/31 06:35:21;;;;;;;1.17;0.80;;;7.00;99.90;;;;;;5053325;28;20427;-65
2024/01/31 06:37:49;;;;;;;3.67;0.73;;;7.00;99.90;;;;;;5052892;28;21032;-65
2024/01/31 06:40:22;;;;;;;1.30;0.90;;;6.90;99.90;;;;;;5053007;28;20521;-65
2024/01/31 06:42:49;;;;;;;1.30;0.80;;;6.90;99.90;;;;;;5053040;28;20465;-65
2024/01/31 06:45:16;;;;;;;0.90;0.60;;;6.90;99.90;;;;;;5053766;28;20443;-67
2024/01/31 06:47:52;;;;;;;2.73;0.73;;;6.90;99.90;;;;;;5054334;28;20426;-66
2024/01/31 06:50:19;;;;;;;1.10;0.60;;;6.80;99.90;;;;;;5054253;28;20492;-65
2024/01/31 06:52:47;;;;;;;2.30;0.90;;;6.80;99.90;;;;;;5054260;28;20541;-66
2024/01/31 06:55:15;;;;;;;1.30;0.80;;;6.70;99.90;;;;;;5054411;28;20438;-64
2024/01/31 06:57:42;;;;;;;1.00;0.70;;;6.70;99.90;;;;;;5058405;28;20473;-65
2024/01/31 07:00:11;;;;;;;1.90;1.00;;;6.80;99.90;;;;;;5081134;28;20507;-66
2024/01/31 07:02:46;;;;;;;5.07;1.20;;;6.80;99.90;;;;;;5082372;28;20470;-65
2024/01/31 07:05:14;;;;;;;0.87;0.60;;;6.80;99.90;;;;;;5086841;28;20488;-65
2024/01/31 07:07:42;;;;;;;2.10;0.70;;;6.80;99.90;;;;;;5078348;28;20464;-64
2024/01/31 07:10:18;;;;;;;1.00;0.70;;;6.70;99.90;;;;;;5077105;28;20951;-66
2024/01/31 07:12:45;;;;;;;1.60;0.80;;;6.80;99.90;;;;;;5076877;28;20881;-65
2024/01/31 07:15:13;;;;;;;1.93;0.70;;;6.70;99.90;;;;;;5076863;28;20506;-66
2024/01/31 07:17:40;;;;;;;1.13;0.70;;;6.70;99.90;;;;;;5077244;28;20525;-65
2024/01/31 07:20:29;;;;;;;0.80;0.50;;;6.70;99.90;;;;;;5076703;28;20513;-67
2024/01/31 07:23:01;;;;;;;1.93;0.60;;;6.70;99.90;;;;;;5077283;28;20560;-66
2024/01/31 07:25:30;;;;;;;1.00;0.60;;;6.70;99.90;;;;;;5077642;28;20944;-68
2024/01/31 07:27:59;;;;;;;1.00;0.80;;;6.70;99.90;;;;;;5076532;28;20484;-65
2024/01/31 07:30:26;;;;;;;1.27;0.73;;;6.70;99.90;;;;;;5076599;28;20516;-65
2024/01/31 07:32:53;;;;;;;0.90;0.80;;;6.70;99.90;;;;;;5058390;28;21090;-64
2024/01/31 07:35:27;;;;;;;3.20;0.70;;;6.70;99.90;;;;;;5076189;28;20852;-64
2024/01/31 07:37:54;;;;;;;1.00;0.70;;;6.60;99.90;;;;;;5076579;28;20557;-65
2024/01/31 07:40:21;;;;;;;1.50;0.87;;;6.60;99.90;;;;;;5076446;28;20985;-66
2024/01/31 07:42:50;;;;;;;4.90;0.83;;;6.60;99.90;;;;;;5076660;28;20533;-67
2024/01/31 07:45:27;;;;;;;1.10;0.70;;;6.50;99.90;;;;;;5077788;28;20440;-64
2024/01/31 07:47:53;;;;;;;1.07;0.63;;;6.50;99.90;;;;;;5078256;28;20446;-68
2024/01/31 07:50:35;;;;;;;0.90;0.60;;;6.50;99.90;;;;;;5077048;28;20453;-66
2024/01/31 07:53:02;;;;;;;3.73;0.73;;;6.40;99.90;;;;;;5061459;28;20473;-66
2024/01/31 07:55:41;;;;;;;1.00;0.60;;;6.50;99.90;;;;;;5071774;28;20516;-66
2024/01/31 07:58:10;;;;;;;1.10;0.60;;;6.50;99.90;;;;;;5076953;28;20904;-66
2024/01/31 08:00:45;;;;;;;0.90;0.70;;;6.40;99.90;;;;;;5076173;28;20499;-66
2024/01/31 08:03:12;;;;;;;1.43;0.70;;;6.40;99.90;;;;;;5076052;28;20503;-66
2024/01/31 08:05:45;;;;;;;3.93;1.00;;;6.40;99.90;;;;;;5076525;28;20453;-66
2024/01/31 08:08:12;;;;;;;0.97;0.60;;;6.50;99.90;;;;;;5076179;28;20416;-65
2024/01/31 08:10:40;;;;;;;2.47;0.93;;;6.50;99.90;;;;;;5076896;28;20433;-65
2024/01/31 08:16:01;;;;;;;1.83;1.20;;;6.50;99.90;;;;;;5151859;23;20490;-54
2024/01/31 08:18:28;;;;;;;1.33;0.90;;;6.50;99.90;;;;;;5056090;28;20490;-56
2024/01/31 08:20:55;;;;;;;1.27;0.80;;;6.50;99.90;;;;;;5056068;28;20442;-56
2024/01/31 08:23:23;;;;;;;2.03;0.60;;;6.60;99.90;;;;;;5056466;28;20477;-58
2024/01/31 08:25:50;;;;;;;1.23;0.77;;;6.60;99.90;;;;;;5056634;28;20931;-59
2024/01/31 08:28:17;;;;;;;1.10;0.70;;;6.60;99.90;;;;;;5056086;28;20461;-59
2024/01/31 08:30:44;;;;;;;2.03;0.93;;;6.60;99.90;;;;;;5054836;28;20518;-58
2024/01/31 08:33:12;;;;;;;1.43;0.80;;;6.70;99.90;;;;;;5055454;28;20492;-54
2024/01/31 08:35:39;;;;;;;1.00;0.77;;;6.70;99.90;;;;;;5056246;28;20470;-58
2024/01/31 08:38:06;;;;;;;1.33;0.80;;;6.70;99.90;;;;;;5056082;28;20529;-57
2024/01/31 08:40:37;;;;;;;4.50;1.20;;;6.80;99.90;;;;;;5055331;28;20505;-57
2024/01/31 08:43:04;;;;;;;0.90;0.70;;;6.80;99.90;;;;;;5055833;28;20447;-59
2024/01/31 08:45:31;;;;;;;1.00;0.70;;;6.70;99.90;;;;;;5055285;28;20511;-58
2024/01/31 08:47:58;;;;;;;3.67;0.60;;;6.70;99.90;;;;;;5055057;28;20542;-58
2024/01/31 08:50:27;;;;;;;1.20;0.60;;;6.70;99.90;;;;;;5055588;28;20432;-58
2024/01/31 08:52:53;;;;;;;1.77;0.70;;;6.70;99.90;;;;;;5054545;28;20486;-58
2024/01/31 08:55:22;;;;;;;1.00;0.70;;;6.70;99.90;;;;;;5055916;28;20457;-59
2024/01/31 08:57:52;;;;;;;1.27;0.60;;;6.60;99.90;;;;;;5055213;28;20522;-58
2024/01/31 09:00:19;;;;;;;1.00;0.80;;;6.60;99.90;;;;;;5054981;28;20495;-59
2024/01/31 09:02:45;;;;;;;0.90;0.60;;;6.60;99.90;;;;;;5055492;28;20474;-59
2024/01/31 09:05:12;;;;;;;2.07;0.93;;;6.60;99.90;;;;;;5054387;28;20490;-59
2024/01/31 09:07:40;;;;;;;1.00;0.67;;;6.70;99.90;;;;;;5041114;28;20740;-57
2024/01/31 09:10:08;;;;;;;2.27;0.70;;;6.70;99.90;;;;;;5053132;28;20442;-54
2024/01/31 09:12:37;;;;;;;0.80;0.57;;;6.70;99.90;;;;;;5052756;28;20443;-61
2024/01/31 09:15:04;;;;;;;2.00;0.90;;;6.70;99.90;;;;;;5052393;28;20494;-58
2024/01/31 09:17:33;;;;;;;2.13;0.73;;;6.80;99.90;;;;;;5052212;28;20455;-59
2024/01/31 09:20:00;;;;;;;7.13;1.10;;;7.00;99.90;;;;;;5052445;28;20512;-57
2024/01/31 09:22:29;;;;;;;2.27;1.73;;;7.10;99.90;;;;;;5053763;28;21027;-61
2024/01/31 09:24:58;;;;;;;1.27;0.80;;;7.30;99.90;;;;;;5054680;28;20936;-62
2024/01/31 09:27:25;;;;;;;2.03;1.17;;;7.40;99.90;;;;;;5054505;28;20490;-61
2024/01/31 09:29:52;;;;;;;1.33;0.70;;;7.50;99.90;;;;;;5055328;28;20439;-61
2024/01/31 09:32:19;;;;;;;0.80;0.50;;;7.40;99.90;;;;;;5055054;28;20458;-61
2024/01/31 09:34:46;;;;;;;1.97;0.93;;;7.30;99.90;;;;;;5031633;28;20489;-63
2024/01/31 09:37:13;;;;;;;1.17;0.70;;;7.20;99.90;;;;;;5034903;28;20478;-62
2024/01/31 09:39:40;;;;;;;1.47;0.90;;;7.00;99.90;;;;;;5035057;28;20491;-60
2024/01/31 09:42:08;;;;;;;1.20;0.97;;;6.90;99.90;;;;;;5034732;28;20502;-61
2024/01/31 09:44:36;;;;;;;2.00;1.13;;;6.80;99.90;;;;;;5034471;28;20981;-62
2024/01/31 09:47:03;;;;;;;1.70;1.20;;;6.60;99.90;;;;;;5034766;28;20541;-62
2024/01/31 09:49:30;;;;;;;2.30;0.60;;;6.50;99.90;;;;;;5034083;28;20466;-63
2024/01/31 09:51:59;;;;;;;2.90;1.30;;;6.40;99.90;;;;;;5034243;28;20506;-62
2024/01/31 09:54:27;;;;;;;1.10;0.70;;;6.40;99.90;;;;;;5033694;28;21080;-62
2024/01/31 09:56:55;;;;;;;0.90;0.60;;;6.40;99.90;;;;;;5034507;28;20472;-62
2024/01/31 09:59:25;;;;;;;1.60;0.73;;;6.50;99.90;;;;;;5034209;28;20493;-61
2024/01/31 10:01:53;;;;;;;3.40;1.33;;;6.50;99.90;;;;;;5034259;28;21012;-61
2024/01/31 10:04:20;;;;;;;2.80;1.00;;;6.60;99.90;;;;;;5034421;28;20474;-62
2024/01/31 10:06:47;;;;;;;2.87;0.87;;;6.60;99.90;;;;;;5034775;28;20546;-60
2024/01/31 10:09:14;;;;;;;1.77;0.87;;;6.60;99.90;;;;;;5034589;28;20500;-63
2024/01/31 10:11:46;;;;;;;1.30;0.60;;;6.70;99.90;;;;;;5034556;28;20451;-62
2024/01/31 10:14:13;;;;;;;0.90;0.60;;;7.00;99.90;;;;;;5034225;28;20416;-62
2024/01/31 10:16:42;;;;;;;1.43;0.80;;;8.00;99.90;;;;;;5034360;28;20495;-62
2024/01/31 10:19:09;;;;;;;1.10;0.70;;;8.40;99.90;;;;;;5034000;28;20482;-61
2024/01/31 10:21:37;;;;;;;1.10;0.70;;;8.40;99.90;;;;;;5034371;28;20454;-62
2024/01/31 10:24:04;;;;;;;6.40;1.10;;;8.20;99.90;;;;;;5034282;28;20508;-62
2024/01/31 10:26:33;;;;;;;1.17;0.70;;;7.90;99.90;;;;;;5034167;28;20796;-63
2024/01/31 10:29:00;;;;;;;1.00;0.67;;;7.70;99.90;;;;;;5033937;28;20475;-62
2024/01/31 10:31:29;;;;;;;1.57;0.80;;;7.60;99.90;;;;;;5034363;28;21106;-62
2024/01/31 10:33:58;;;;;;;2.30;0.87;;;7.60;99.90;;;;;;5033878;28;20482;-61
2024/01/31 10:36:27;;;;;;;1.23;1.10;;;7.70;99.90;;;;;;5033869;28;20826;-62
2024/01/31 10:38:55;;;;;;;2.33;0.83;;;7.80;99.90;;;;;;5033848;28;20584;-63
2024/01/31 10:41:24;;;;;;;1.13;0.70;;;7.80;99.90;;;;;;5034103;28;20474;-61
2024/01/31 10:43:51;;;;;;;1.00;0.70;;;7.80;99.90;;;;;;5034026;28;20448;-65
2024/01/31 10:46:19;;;;;;;1.60;0.63;;;7.60;99.90;;;;;;5033652;28;20472;-62
2024/01/31 10:48:45;;;;;;;3.27;0.70;;;7.50;99.90;;;;;;5034048;28;20532;-62
2024/01/31 10:51:16;;;;;;;0.90;0.77;;;7.30;99.90;;;;;;5034081;28;20978;-62
2024/01/31 10:53:44;;;;;;;4.93;0.80;;;7.10;99.90;;;;;;5033706;28;20534;-61
2024/01/31 10:56:12;;;;;;;3.63;1.07;;;7.10;99.90;;;;;;5033617;28;20540;-63
2024/01/31 10:58:39;;;;;;;3.33;1.03;;;7.20;99.90;;;;;;5033835;28;20557;-63
2024/01/31 11:01:10;;;;;;;2.00;0.83;;;7.20;99.90;;;;;;5033703;28;20522;-62
2024/01/31 11:03:36;;;;;;;0.87;0.70;;;7.20;99.90;;;;;;5033736;28;20438;-63
2024/01/31 11:06:04;;;;;;;1.23;0.80;;;7.10;99.90;;;;;;5033909;28;20497;-63
2024/01/31 11:08:32;;;;;;;1.80;0.70;;;7.00;99.90;;;;;;5033498;28;20448;-62
2024/01/31 11:11:00;;;;;;;1.87;1.00;;;7.00;99.90;;;;;;5033588;28;20569;-61
2024/01/31 11:13:27;;;;;;;5.17;0.93;;;6.90;99.90;;;;;;5033017;28;20509;-62
2024/01/31 11:15:54;;;;;;;3.97;1.00;;;7.00;99.90;;;;;;5032888;28;20478;-63
2024/01/31 11:18:32;;;;;;;5.80;1.20;;;7.00;99.90;;;;;;5033080;28;20935;-63
2024/01/31 11:20:59;;;;;;;4.73;1.53;;;7.00;99.90;;;;;;5033794;28;20504;-62
2024/01/31 11:23:26;;;;;;;4.80;1.30;;;7.00;99.90;;;;;;5033279;28;20995;-61
2024/01/31 11:25:55;;;;;;;17.07;2.03;;;7.00;99.90;;;;;;5033326;28;20443;-63
2024/01/31 11:28:25;;;;;;;3.83;1.20;;;6.90;99.90;;;;;;5033935;28;20450;-62
2024/01/31 11:30:52;;;;;;;6.03;1.40;;;6.80;99.90;;;;;;5033454;28;20511;-61
2024/01/31 11:33:20;;;;;;;2.10;1.10;;;6.80;99.90;;;;;;5033349;28;20919;-61
2024/01/31 11:35:47;;;;;;;7.60;2.03;;;6.70;99.90;;;;;;5033354;28;21088;-60
2024/01/31 11:38:15;;;;;;;2.17;1.63;;;6.70;99.90;;;;;;5033385;28;20482;-63
2024/01/31 11:40:41;;;;;;;9.43;1.30;;;6.70;99.90;;;;;;5032044;28;20600;-61
2024/01/31 11:43:10;;;;;;;3.27;1.80;;;6.50;99.90;;;;;;5036486;28;20793;-61
2024/01/31 11:45:38;;;;;;;3.10;1.17;;;6.50;99.90;;;;;;5036326;28;20444;-62
2024/01/31 11:48:06;;;;;;;2.80;1.40;;;6.40;99.90;;;;;;5037028;28;20998;-61
2024/01/31 11:50:33;;;;;;;1.20;0.80;;;6.30;99.90;;;;;;5036755;28;20564;-62
2024/01/31 11:53:00;;;;;;;1.90;1.37;;;6.30;99.90;;;;;;5037011;28;20512;-64
2024/01/31 11:55:29;;;;;;;2.50;1.07;;;6.30;99.90;;;;;;5036644;28;20565;-62
2024/01/31 11:57:56;;;;;;;3.17;1.03;;;6.20;99.90;;;;;;5037026;28;20558;-59
2024/01/31 12:00:29;;;;;;;3.23;1.30;;;6.20;99.90;;;;;;5036642;28;20482;-61
2024/01/31 12:02:56;;;;;;;5.23;0.97;;;6.20;99.90;;;;;;5036992;28;20501;-61
2024/01/31 12:05:23;;;;;;;1.90;1.10;;;6.30;99.90;;;;;;5036727;28;20442;-62
2024/01/31 12:07:56;;;;;;;3.53;1.00;;;6.30;99.90;;;;;;5036719;28;20466;-60
2024/01/31 12:10:26;;;;;;;5.13;1.43;;;6.40;99.90;;;;;;5036477;28;20439;-62
2024/01/31 12:12:53;;;;;;;4.63;1.30;;;6.40;99.90;;;;;;5036700;28;20466;-62
2024/01/31 12:15:21;;;;;;;4.43;1.30;;;6.40;99.90;;;;;;5036419;28;20493;-62
2024/01/31 12:17:49;;;;;;;4.33;1.23;;;6.40;99.90;;;;;;5036459;28;20478;-63
2024/01/31 12:20:26;;;;;;;1.23;0.87;;;6.40;99.90;;;;;;5036148;28;20486;-62
2024/01/31 12:22:52;;;;;;;7.70;1.00;;;6.40;99.90;;;;;;5036185;28;20441;-62
2024/01/31 12:25:19;;;;;;;3.83;1.50;;;6.40;99.90;;;;;;5036148;28;20868;-64
2024/01/31 12:27:46;;;;;;;2.00;0.80;;;6.40;99.90;;;;;;5036367;28;20531;-61
2024/01/31 12:30:15;;;;;;;3.80;1.20;;;6.30;99.90;;;;;;5035941;28;20461;-61
2024/01/31 12:32:42;;;;;;;6.83;2.10;;;6.30;99.90;;;;;;5036078;28;20490;-62
2024/01/31 12:35:11;;;;;;;1.37;0.80;;;6.40;99.90;;;;;;5036043;28;20505;-62
2024/01/31 12:37:39;;;;;;;1.77;0.90;;;6.40;99.90;;;;;;5035822;28;20450;-63
2024/01/31 12:40:07;;;;;;;1.37;0.90;;;6.40;99.90;;;;;;5036217;28;20564;-62
2024/01/31 12:42:34;;;;;;;7.10;3.23;;;6.40;99.90;;;;;;5035816;28;20474;-61
2024/01/31 12:45:01;;;;;;;3.27;0.87;;;6.40;99.90;;;;;;5036154;28;20442;-62
2024/01/31 12:47:28;;;;;;;9.50;1.47;;;6.50;99.90;;;;;;5036113;28;20640;-62
2024/01/31 12:49:55;;;;;;;8.10;0.90;;;6.50;99.90;;;;;;5035668;28;20533;-61
2024/01/31 12:52:26;;;;;;;6.23;1.30;;;6.50;99.90;;;;;;5035738;28;20533;-60
2024/01/31 12:54:53;;;;;;;10.70;2.03;;;6.50;99.90;;;;;;5034736;28;20543;-63
2024/01/31 12:57:20;;;;;;;1.63;1.40;;;6.50;99.90;;;;;;5035712;28;21019;-63
2024/01/31 12:59:47;;;;;;;3.37;1.17;;;6.60;99.90;;;;;;5035851;28;20492;-61
2024/01/31 13:02:14;;;;;;;3.43;1.53;;;6.60;99.90;;;;;;5035360;28;20447;-62
2024/01/31 13:04:44;;;;;;;7.53;2.20;;;6.50;99.90;;;;;;5035450;28;20532;-62